createdAt,value
2017-08-15T00:01:23.140Z,16.71
2017-08-15T00:03:52.597Z,16.65
2017-08-15T00:06:22.033Z,16.59
2017-08-15T00:08:51.475Z,16.55
2017-08-15T00:11:20.920Z,16.51
2017-08-15T00:13:50.400Z,16.48
2017-08-15T00:16:19.839Z,16.43
2017-08-15T00:18:49.292Z,16.38
2017-08-15T00:21:18.727Z,16.32
2017-08-15T00:23:48.168Z,16.29
2017-08-15T00:26:17.616Z,16.22
2017-08-15T00:28:47.053Z,16.23
2017-08-15T00:31:16.501Z,16.15
2017-08-15T00:33:46.031Z,16.09
2017-08-15T00:36:15.517Z,16.06
2017-08-15T00:38:44.939Z,16.05
2017-08-15T00:41:14.384Z,16.03
2017-08-15T00:43:43.833Z,15.97
2017-08-15T00:46:13.273Z,15.94
2017-08-15T00:48:42.718Z,15.89
2017-08-15T00:51:12.045Z,15.85
2017-08-15T00:53:41.521Z,15.84
2017-08-15T00:56:10.964Z,15.81
2017-08-15T00:58:40.405Z,15.78
2017-08-15T01:01:09.849Z,15.74
2017-08-15T01:03:39.116Z,15.71
2017-08-15T01:06:08.560Z,15.67
2017-08-15T01:08:37.993Z,15.62
2017-08-15T01:11:07.433Z,15.59
2017-08-15T01:13:36.872Z,15.55
2017-08-15T01:16:06.312Z,15.53
2017-08-15T01:18:35.768Z,15.49
2017-08-15T01:21:05.211Z,15.45
2017-08-15T01:23:34.673Z,15.40
2017-08-15T01:26:04.153Z,15.38
2017-08-15T01:28:33.580Z,15.35
2017-08-15T01:31:03.033Z,15.31
2017-08-15T01:33:32.760Z,15.26
2017-08-15T01:36:02.206Z,15.26
2017-08-15T01:38:31.648Z,15.22
2017-08-15T01:41:01.092Z,15.18
2017-08-15T01:43:30.532Z,15.18
2017-08-15T01:45:59.972Z,15.14
2017-08-15T01:48:29.411Z,15.10
2017-08-15T01:50:59.142Z,15.07
2017-08-15T01:53:28.575Z,15.04
2017-08-15T01:55:58.977Z,15.02
2017-08-15T01:58:28.391Z,15.00
2017-08-15T02:00:57.827Z,14.98
2017-08-15T02:03:27.109Z,14.96
2017-08-15T02:05:56.565Z,14.93
2017-08-15T02:08:26.312Z,14.92
2017-08-15T02:10:55.871Z,14.88
2017-08-15T02:13:25.288Z,14.85
2017-08-15T02:15:54.745Z,14.82
2017-08-15T02:18:24.473Z,14.79
2017-08-15T02:20:54.217Z,14.75
2017-08-15T02:23:23.949Z,14.71
2017-08-15T02:25:53.718Z,14.69
2017-08-15T02:28:23.149Z,14.65
2017-08-15T02:30:52.612Z,14.64
2017-08-15T02:33:22.052Z,14.61
2017-08-15T02:35:51.788Z,14.58
2017-08-15T02:38:21.394Z,14.56
2017-08-15T02:40:51.125Z,14.55
2017-08-15T02:43:20.849Z,14.52
2017-08-15T02:45:50.580Z,14.47
2017-08-15T02:48:20.308Z,14.44
2017-08-15T02:50:50.054Z,14.42
2017-08-15T02:53:19.778Z,14.39
2017-08-15T02:55:49.505Z,14.35
2017-08-15T02:58:19.235Z,14.31
2017-08-15T03:00:48.973Z,14.27
2017-08-15T03:03:18.701Z,14.24
2017-08-15T03:05:48.424Z,14.22
2017-08-15T03:08:18.178Z,14.21
2017-08-15T03:10:47.911Z,14.21
2017-08-15T03:13:17.699Z,14.16
2017-08-15T03:15:47.409Z,14.12
2017-08-15T03:18:17.140Z,14.10
2017-08-15T03:20:46.855Z,14.07
2017-08-15T03:23:16.590Z,14.06
2017-08-15T03:25:46.128Z,14.02
2017-08-15T03:28:15.877Z,14.02
2017-08-15T03:30:45.597Z,13.98
2017-08-15T03:33:15.353Z,13.96
2017-08-15T03:35:45.090Z,13.94
2017-08-15T03:38:14.810Z,13.92
2017-08-15T03:40:44.555Z,13.90
2017-08-15T03:43:14.271Z,13.87
2017-08-15T03:45:44.049Z,13.85
2017-08-15T03:48:13.784Z,13.83
2017-08-15T03:50:43.504Z,13.81
2017-08-15T03:53:13.237Z,13.79
2017-08-15T03:55:42.982Z,13.79
2017-08-15T03:58:12.758Z,13.78
2017-08-15T04:00:43.124Z,13.77
2017-08-15T04:03:12.843Z,13.77
2017-08-15T04:05:42.576Z,13.79
2017-08-15T04:08:12.324Z,13.79
2017-08-15T04:10:42.066Z,13.80
2017-08-15T04:13:11.797Z,13.80
2017-08-15T04:15:41.524Z,13.79
2017-08-15T04:18:11.245Z,13.80
2017-08-15T04:20:40.980Z,13.81
2017-08-15T04:23:10.716Z,13.82
2017-08-15T04:25:40.445Z,13.84
2017-08-15T04:28:10.177Z,13.86
2017-08-15T04:30:39.915Z,13.90
2017-08-15T04:33:09.656Z,13.93
2017-08-15T04:35:39.391Z,13.97
2017-08-15T04:38:09.121Z,14.00
2017-08-15T04:40:38.876Z,14.05
2017-08-15T04:43:08.649Z,14.11
2017-08-15T04:45:38.364Z,14.16
2017-08-15T04:48:08.080Z,14.23
2017-08-15T04:50:37.814Z,14.32
2017-08-15T04:53:07.532Z,14.40
2017-08-15T04:55:37.297Z,14.47
2017-08-15T04:58:06.820Z,14.54
2017-08-15T05:00:36.550Z,14.62
2017-08-15T05:03:06.290Z,14.69
2017-08-15T05:05:36.013Z,14.76
2017-08-15T05:08:05.746Z,14.83
2017-08-15T05:10:35.195Z,14.90
2017-08-15T05:13:04.916Z,14.99
2017-08-15T05:15:34.776Z,15.08
2017-08-15T05:18:04.511Z,15.19
2017-08-15T05:20:34.229Z,15.30
2017-08-15T05:23:03.677Z,15.43
2017-08-15T05:25:33.430Z,15.55
2017-08-15T05:28:02.917Z,15.68
2017-08-15T05:30:32.349Z,15.81
2017-08-15T05:33:01.802Z,15.95
2017-08-15T05:35:31.243Z,16.08
2017-08-15T05:38:00.684Z,16.22
2017-08-15T05:40:30.155Z,16.35
2017-08-15T05:42:59.588Z,16.49
2017-08-15T05:45:29.024Z,16.62
2017-08-15T05:47:58.483Z,16.76
2017-08-15T05:50:27.935Z,16.90
2017-08-15T05:52:57.363Z,17.03
2017-08-15T05:55:26.828Z,17.17
2017-08-15T05:57:56.289Z,17.31
2017-08-15T06:00:25.738Z,17.43
2017-08-15T06:02:55.021Z,17.59
2017-08-15T06:05:24.505Z,17.73
2017-08-15T06:07:53.945Z,17.86
2017-08-15T06:10:23.492Z,17.96
2017-08-15T06:12:52.923Z,18.08
2017-08-15T06:15:22.406Z,18.19
2017-08-15T06:17:51.860Z,18.29
2017-08-15T06:20:21.339Z,18.41
2017-08-15T06:22:50.773Z,18.54
2017-08-15T06:25:20.253Z,18.64
2017-08-15T06:27:49.704Z,18.76
2017-08-15T06:30:19.185Z,18.85
2017-08-15T06:32:48.627Z,18.97
2017-08-15T06:35:18.179Z,19.08
2017-08-15T06:37:47.616Z,19.18
2017-08-15T06:40:17.102Z,19.28
2017-08-15T06:42:46.553Z,19.41
2017-08-15T06:45:16.075Z,19.51
2017-08-15T06:47:45.526Z,19.61
2017-08-15T06:50:15.080Z,19.72
2017-08-15T06:52:44.529Z,19.83
2017-08-15T06:55:14.013Z,19.91
2017-08-15T06:57:43.470Z,20.03
2017-08-15T07:00:12.996Z,20.18
2017-08-15T07:02:42.445Z,20.25
2017-08-15T07:05:11.938Z,20.38
2017-08-15T07:07:41.402Z,20.53
2017-08-15T07:10:10.922Z,20.61
2017-08-15T07:12:40.357Z,20.72
2017-08-15T07:15:11.555Z,20.76
2017-08-15T07:17:41.706Z,20.79
2017-08-15T07:20:11.198Z,20.86
2017-08-15T07:22:40.660Z,21.01
2017-08-15T07:25:10.159Z,21.13
2017-08-15T07:27:39.602Z,21.25
2017-08-15T07:30:09.108Z,21.25
2017-08-15T07:32:38.555Z,21.30
2017-08-15T07:35:08.044Z,21.37
2017-08-15T07:37:37.512Z,21.55
2017-08-15T07:40:07.039Z,21.70
2017-08-15T07:42:36.485Z,21.83
2017-08-15T07:45:05.954Z,21.93
2017-08-15T07:47:35.389Z,22.01
2017-08-15T07:50:04.888Z,22.02
2017-08-15T07:52:34.333Z,22.08
2017-08-15T07:55:03.840Z,22.26
2017-08-15T07:57:33.289Z,22.31
2017-08-15T08:00:02.783Z,22.48
2017-08-15T08:02:32.064Z,22.54
2017-08-15T08:05:01.577Z,22.66
2017-08-15T08:07:31.078Z,22.65
2017-08-15T08:10:00.331Z,22.69
2017-08-15T08:12:29.796Z,22.81
2017-08-15T08:14:59.248Z,22.94
2017-08-15T08:17:28.709Z,23.08
2017-08-15T08:19:58.166Z,23.17
2017-08-15T08:22:27.629Z,23.36
2017-08-15T08:24:57.179Z,23.34
2017-08-15T08:27:26.690Z,23.36
2017-08-15T08:29:56.162Z,23.38
2017-08-15T08:32:25.616Z,23.51
2017-08-15T08:34:55.064Z,23.59
2017-08-15T08:37:24.518Z,23.66
2017-08-15T08:39:53.956Z,23.66
2017-08-15T08:42:23.409Z,23.79
2017-08-15T08:44:52.837Z,24.04
2017-08-15T08:47:22.331Z,24.02
2017-08-15T08:49:51.754Z,24.04
2017-08-15T08:52:21.186Z,24.24
2017-08-15T08:54:50.643Z,24.31
2017-08-15T08:57:20.096Z,24.43
2017-08-15T08:59:49.546Z,24.63
2017-08-15T09:02:19.037Z,24.77
2017-08-15T09:04:49.160Z,24.77
2017-08-15T09:07:18.600Z,24.92
2017-08-15T09:09:48.058Z,25.07
2017-08-15T09:12:17.325Z,25.19
2017-08-15T09:14:46.770Z,25.08
2017-08-15T09:17:16.055Z,25.18
2017-08-15T09:19:45.485Z,25.30
2017-08-15T09:22:14.973Z,25.42
2017-08-15T09:24:44.426Z,25.46
2017-08-15T09:27:14.580Z,25.54
2017-08-15T09:29:46.898Z,25.54
2017-08-15T09:32:16.330Z,25.71
2017-08-15T09:34:45.582Z,25.71
2017-08-15T09:37:14.837Z,26.03
2017-08-15T09:39:44.288Z,26.05
2017-08-15T09:42:13.540Z,26.17
2017-08-15T09:44:43.013Z,26.26
2017-08-15T09:47:12.290Z,26.15
2017-08-15T09:49:41.744Z,26.41
2017-08-15T09:52:11.195Z,26.57
2017-08-15T09:54:40.625Z,26.71
2017-08-15T09:57:10.088Z,26.83
2017-08-15T09:59:39.537Z,27.11
2017-08-15T10:02:09.093Z,27.17
2017-08-15T10:04:38.621Z,27.37
2017-08-15T10:07:08.146Z,27.45
2017-08-15T10:09:37.638Z,27.60
2017-08-15T10:12:07.115Z,27.76
2017-08-15T10:14:36.599Z,27.92
2017-08-15T10:17:06.042Z,27.93
2017-08-15T10:19:35.502Z,27.93
2017-08-15T10:22:04.958Z,28.06
2017-08-15T10:24:34.223Z,28.23
2017-08-15T10:27:03.682Z,28.28
2017-08-15T10:29:33.115Z,28.27
2017-08-15T10:32:02.592Z,28.46
2017-08-15T10:34:32.029Z,28.61
2017-08-15T10:37:01.460Z,28.75
2017-08-15T10:39:30.906Z,28.51
2017-08-15T10:42:00.360Z,28.86
2017-08-15T10:44:29.807Z,28.82
2017-08-15T10:46:59.250Z,29.00
2017-08-15T10:49:28.695Z,29.19
2017-08-15T10:51:58.136Z,29.30
2017-08-15T10:54:27.382Z,29.44
2017-08-15T10:56:56.846Z,29.40
2017-08-15T10:59:26.091Z,29.56
2017-08-15T11:01:55.540Z,29.61
2017-08-15T11:04:24.976Z,29.40
2017-08-15T11:06:54.434Z,29.68
2017-08-15T11:09:23.942Z,29.64
2017-08-15T11:11:53.362Z,29.65
2017-08-15T11:14:22.821Z,29.73
2017-08-15T11:16:52.276Z,29.90
2017-08-15T11:19:21.759Z,29.85
2017-08-15T11:21:51.193Z,30.13
2017-08-15T11:24:20.669Z,29.98
2017-08-15T11:26:50.129Z,29.82
2017-08-15T11:29:19.560Z,29.95
2017-08-15T11:31:49.004Z,30.13
2017-08-15T11:34:18.457Z,30.31
2017-08-15T11:36:47.901Z,30.34
2017-08-15T11:39:17.544Z,30.14
2017-08-15T11:41:46.973Z,30.40
2017-08-15T11:44:16.417Z,30.47
2017-08-15T11:46:45.864Z,30.58
2017-08-15T11:49:15.310Z,30.61
2017-08-15T11:51:44.748Z,30.67
2017-08-15T11:54:14.205Z,30.69
2017-08-15T11:56:43.648Z,30.57
2017-08-15T11:59:13.085Z,30.52
2017-08-15T12:01:42.532Z,30.61
2017-08-15T12:04:11.990Z,30.56
2017-08-15T12:06:41.246Z,30.85
2017-08-15T12:09:10.469Z,30.71
2017-08-15T12:11:39.915Z,30.45
2017-08-15T12:14:09.373Z,30.57
2017-08-15T12:16:38.818Z,30.88
2017-08-15T12:19:08.236Z,30.99
2017-08-15T12:21:37.670Z,31.13
2017-08-15T12:24:07.145Z,31.52
2017-08-15T12:26:36.429Z,31.96
2017-08-15T12:29:05.874Z,32.79
2017-08-15T12:31:35.335Z,33.65
2017-08-15T12:34:04.758Z,34.29
2017-08-15T12:36:34.213Z,35.31
2017-08-15T12:39:03.224Z,35.67
2017-08-15T12:41:32.673Z,36.63
2017-08-15T12:44:02.113Z,37.68
2017-08-15T12:46:31.561Z,38.83
2017-08-15T12:49:00.993Z,39.51
2017-08-15T12:51:30.450Z,40.22
2017-08-15T12:53:59.901Z,40.53
2017-08-15T12:56:29.369Z,40.91
2017-08-15T12:58:58.790Z,41.26
2017-08-15T13:01:28.252Z,42.10
2017-08-15T13:03:57.696Z,41.99
2017-08-15T13:06:27.141Z,42.26
2017-08-15T13:08:56.712Z,42.84
2017-08-15T13:11:26.150Z,42.98
2017-08-15T13:13:55.612Z,43.70
2017-08-15T13:16:25.049Z,43.75
2017-08-15T13:18:54.489Z,43.17
2017-08-15T13:21:23.930Z,43.10
2017-08-15T13:23:53.202Z,43.18
2017-08-15T13:26:22.453Z,43.62
2017-08-15T13:28:51.724Z,43.18
2017-08-15T13:31:21.180Z,43.97
2017-08-15T13:33:50.445Z,44.36
2017-08-15T13:36:19.791Z,45.00
2017-08-15T13:38:49.052Z,45.16
2017-08-15T13:41:18.306Z,45.10
2017-08-15T13:43:47.770Z,45.15
2017-08-15T13:46:17.232Z,44.75
2017-08-15T13:48:46.489Z,44.70
2017-08-15T13:51:15.950Z,44.96
2017-08-15T13:53:45.419Z,45.38
2017-08-15T13:56:14.722Z,45.77
2017-08-15T13:58:43.962Z,45.55
2017-08-15T14:01:13.246Z,45.93
2017-08-15T14:03:42.492Z,46.20
2017-08-15T14:06:11.761Z,45.97
2017-08-15T14:08:41.024Z,46.37
2017-08-15T14:11:10.294Z,46.45
2017-08-15T14:13:39.540Z,46.66
2017-08-15T14:16:08.797Z,46.03
2017-08-15T14:18:38.040Z,46.50
2017-08-15T14:21:07.332Z,46.66
2017-08-15T14:23:36.568Z,46.65
2017-08-15T14:26:06.026Z,46.58
2017-08-15T14:28:35.305Z,46.23
2017-08-15T14:31:04.761Z,46.65
2017-08-15T14:33:34.205Z,46.54
2017-08-15T14:36:03.510Z,46.76
2017-08-15T14:38:32.946Z,46.44
2017-08-15T14:41:02.199Z,46.78
2017-08-15T14:43:31.680Z,46.17
2017-08-15T14:46:00.940Z,45.97
2017-08-15T14:48:30.193Z,45.64
2017-08-15T14:50:59.452Z,46.19
2017-08-15T14:53:28.769Z,46.48
2017-08-15T14:55:58.021Z,46.30
2017-08-15T14:58:27.482Z,46.84
2017-08-15T15:00:56.878Z,46.61
2017-08-15T15:03:26.219Z,46.26
2017-08-15T15:05:55.490Z,46.39
2017-08-15T15:08:24.765Z,46.65
2017-08-15T15:10:54.008Z,46.07
2017-08-15T15:13:23.269Z,45.96
2017-08-15T15:15:52.521Z,45.79
2017-08-15T15:18:21.796Z,45.76
2017-08-15T15:20:51.032Z,44.86
2017-08-15T15:23:20.332Z,44.44
2017-08-15T15:25:49.564Z,44.98
2017-08-15T15:28:19.717Z,45.23
2017-08-15T15:30:48.947Z,45.03
2017-08-15T15:33:18.381Z,44.76
2017-08-15T15:35:47.790Z,44.69
2017-08-15T15:38:17.052Z,44.35
2017-08-15T15:40:46.512Z,44.40
2017-08-15T15:43:15.753Z,44.48
2017-08-15T15:45:45.216Z,44.45
2017-08-15T15:48:14.474Z,44.20
2017-08-15T15:50:43.905Z,45.19
2017-08-15T15:53:13.364Z,45.09
2017-08-15T15:55:42.796Z,45.10
2017-08-15T15:58:12.242Z,44.93
2017-08-15T16:00:41.697Z,43.83
2017-08-15T16:03:10.949Z,43.69
2017-08-15T16:05:40.410Z,43.55
2017-08-15T16:08:09.856Z,44.39
2017-08-15T16:10:39.317Z,44.16
2017-08-15T16:13:08.749Z,44.21
2017-08-15T16:15:38.284Z,44.23
2017-08-15T16:18:07.537Z,44.15
2017-08-15T16:20:36.985Z,43.84
2017-08-15T16:23:06.437Z,43.24
2017-08-15T16:25:35.924Z,42.99
2017-08-15T16:28:05.422Z,42.38
2017-08-15T16:30:34.868Z,42.50
2017-08-15T16:33:04.306Z,41.87
2017-08-15T16:35:33.737Z,41.63
2017-08-15T16:38:03.183Z,40.58
2017-08-15T16:40:32.457Z,40.37
2017-08-15T16:43:01.720Z,39.40
2017-08-15T16:45:30.994Z,38.99
2017-08-15T16:48:00.362Z,39.19
2017-08-15T16:50:29.615Z,39.32
2017-08-15T16:52:58.897Z,39.60
2017-08-15T16:55:28.156Z,39.59
2017-08-15T16:57:57.665Z,39.52
2017-08-15T17:00:27.117Z,39.48
2017-08-15T17:02:56.376Z,39.34
2017-08-15T17:05:25.633Z,39.23
2017-08-15T17:07:55.080Z,39.05
2017-08-15T17:10:24.625Z,39.04
2017-08-15T17:12:54.062Z,39.14
2017-08-15T17:15:23.627Z,38.89
2017-08-15T17:17:53.057Z,39.07
2017-08-15T17:20:22.540Z,38.05
2017-08-15T17:22:51.987Z,37.63
2017-08-15T17:25:21.369Z,37.39
2017-08-15T17:27:50.818Z,36.79
2017-08-15T17:30:20.317Z,36.13
2017-08-15T17:32:49.758Z,35.57
2017-08-15T17:35:19.319Z,34.67
2017-08-15T17:37:48.757Z,34.08
2017-08-15T17:40:18.224Z,33.12
2017-08-15T17:42:47.728Z,32.45
2017-08-15T17:45:17.207Z,31.85
2017-08-15T17:47:46.658Z,31.19
2017-08-15T17:50:16.200Z,30.48
2017-08-15T17:52:45.660Z,29.80
2017-08-15T17:55:15.154Z,29.29
2017-08-15T17:57:44.605Z,28.84
2017-08-15T18:00:14.098Z,28.34
2017-08-15T18:02:43.367Z,27.93
2017-08-15T18:05:12.911Z,27.63
2017-08-15T18:07:42.342Z,27.34
2017-08-15T18:10:11.822Z,27.00
2017-08-15T18:12:41.270Z,26.71
2017-08-15T18:15:10.755Z,26.43
2017-08-15T18:17:40.190Z,26.18
2017-08-15T18:20:09.691Z,25.87
2017-08-15T18:22:39.262Z,25.64
2017-08-15T18:25:08.735Z,25.44
2017-08-15T18:27:38.172Z,25.14
2017-08-15T18:30:07.658Z,24.84
2017-08-15T18:32:37.089Z,24.64
2017-08-15T18:35:06.609Z,24.48
2017-08-15T18:37:36.062Z,24.30
2017-08-15T18:40:05.538Z,24.05
2017-08-15T18:42:34.978Z,23.86
2017-08-15T18:45:04.485Z,23.71
2017-08-15T18:47:33.936Z,23.55
2017-08-15T18:50:03.524Z,23.37
2017-08-15T18:52:32.955Z,23.22
2017-08-15T18:55:02.447Z,23.06
2017-08-15T18:57:31.896Z,22.91
2017-08-15T19:00:01.457Z,22.79
2017-08-15T19:02:30.774Z,22.69
2017-08-15T19:05:00.257Z,22.51
2017-08-15T19:07:29.715Z,22.36
2017-08-15T19:09:59.169Z,22.25
2017-08-15T19:12:28.675Z,22.14
2017-08-15T19:14:58.997Z,22.06
2017-08-15T19:17:28.258Z,21.96
2017-08-15T19:19:57.723Z,21.82
2017-08-15T19:22:27.184Z,21.70
2017-08-15T19:24:56.726Z,21.59
2017-08-15T19:27:26.178Z,21.50
2017-08-15T19:29:55.646Z,21.38
2017-08-15T19:32:25.080Z,21.27
2017-08-15T19:34:54.547Z,21.19
2017-08-15T19:37:24.020Z,21.11
2017-08-15T19:39:53.492Z,21.03
2017-08-15T19:42:22.944Z,20.94
2017-08-15T19:44:52.423Z,20.89
2017-08-15T19:47:21.860Z,20.82
2017-08-15T19:49:51.122Z,20.74
2017-08-15T19:52:20.581Z,20.69
2017-08-15T19:54:50.044Z,20.61
2017-08-15T19:57:19.859Z,20.56
2017-08-15T19:59:49.333Z,20.51
2017-08-15T20:02:18.783Z,20.43
2017-08-15T20:04:48.273Z,20.37
2017-08-15T20:07:17.741Z,20.30
2017-08-15T20:09:47.192Z,20.25
2017-08-15T20:12:16.634Z,20.25
2017-08-15T20:14:46.084Z,20.21
2017-08-15T20:17:15.521Z,20.17
2017-08-15T20:19:44.987Z,20.14
2017-08-15T20:22:14.436Z,20.09
2017-08-15T20:24:43.873Z,20.04
2017-08-15T20:27:13.320Z,20.00
2017-08-15T20:29:43.635Z,19.99
2017-08-15T20:32:13.069Z,19.96
2017-08-15T20:34:42.551Z,19.93
2017-08-15T20:37:12.020Z,19.88
2017-08-15T20:39:41.500Z,19.87
2017-08-15T20:42:10.987Z,19.83
2017-08-15T20:44:41.051Z,19.79
2017-08-15T20:47:10.488Z,19.75
2017-08-15T20:49:39.940Z,19.70
2017-08-15T20:52:09.403Z,19.69
2017-08-15T20:54:38.861Z,19.65
2017-08-15T20:57:08.312Z,19.61
2017-08-15T20:59:37.769Z,19.58
2017-08-15T21:02:07.202Z,19.55
2017-08-15T21:04:36.662Z,19.52
2017-08-15T21:07:06.102Z,19.46
2017-08-15T21:09:35.548Z,19.41
2017-08-15T21:12:04.992Z,19.34
2017-08-15T21:14:34.436Z,19.27
2017-08-15T21:17:03.876Z,19.20
2017-08-15T21:19:33.350Z,19.15
2017-08-15T21:22:02.795Z,19.10
2017-08-15T21:24:32.225Z,19.09
2017-08-15T21:27:01.677Z,19.09
2017-08-15T21:29:31.137Z,19.04
2017-08-15T21:32:00.583Z,18.99
2017-08-15T21:34:30.059Z,18.96
2017-08-15T21:36:59.512Z,18.91
2017-08-15T21:42:07.531Z,18.85
2017-08-15T21:44:36.967Z,18.83
2017-08-15T21:47:06.429Z,18.81
2017-08-15T21:49:35.895Z,18.77
2017-08-15T21:52:05.355Z,18.74
2017-08-15T21:54:34.817Z,18.71
2017-08-15T21:57:04.271Z,18.66
2017-08-15T21:59:33.713Z,18.64
2017-08-15T22:02:22.956Z,18.60
2017-08-15T22:04:52.411Z,18.58
2017-08-15T22:07:21.856Z,18.63
2017-08-15T22:09:51.312Z,18.64
2017-08-15T22:12:20.750Z,18.64
2017-08-15T22:14:50.208Z,18.72
2017-08-15T22:17:19.684Z,18.67
2017-08-15T22:19:49.138Z,18.67
2017-08-15T22:22:18.581Z,18.66
2017-08-15T22:24:48.026Z,18.63
2017-08-15T22:27:17.469Z,18.56
2017-08-15T22:29:46.908Z,18.49
2017-08-15T22:32:16.380Z,18.43
2017-08-15T22:34:45.842Z,18.37
2017-08-15T22:37:15.284Z,18.32
2017-08-15T22:39:44.569Z,18.28
2017-08-15T22:42:14.012Z,18.29
2017-08-15T22:44:43.457Z,18.28
2017-08-15T22:47:12.744Z,18.30
2017-08-15T22:49:42.172Z,18.32
2017-08-15T22:52:11.612Z,18.32
2017-08-15T22:54:40.872Z,18.30
2017-08-15T22:57:10.312Z,18.30
2017-08-15T22:59:39.754Z,18.27
2017-08-15T23:02:09.206Z,18.30
2017-08-15T23:04:38.652Z,18.32
2017-08-15T23:07:08.086Z,18.31
2017-08-15T23:09:37.531Z,18.30
2017-08-15T23:12:06.971Z,18.29
2017-08-15T23:14:36.416Z,18.27
2017-08-15T23:17:05.697Z,18.26
2017-08-15T23:19:35.131Z,18.19
2017-08-15T23:22:04.617Z,18.18
2017-08-15T23:24:33.876Z,18.17
2017-08-15T23:27:03.321Z,18.13
2017-08-15T23:29:32.793Z,18.08
2017-08-15T23:32:02.244Z,18.08
2017-08-15T23:34:31.691Z,18.02
2017-08-15T23:37:01.159Z,17.99
2017-08-15T23:39:30.686Z,18.01
2017-08-15T23:42:00.126Z,17.99
2017-08-15T23:44:29.577Z,17.98
2017-08-15T23:46:59.031Z,17.93
2017-08-15T23:49:28.453Z,17.88
2017-08-15T23:51:57.901Z,17.81
2017-08-15T23:54:27.360Z,17.77
2017-08-15T23:56:56.800Z,17.76
2017-08-15T23:59:26.252Z,17.77
